createdAt,value
2019-03-25T00:00:11.094Z,17.45
2019-03-25T00:02:39.505Z,14.45
2019-03-25T00:05:08.061Z,15.32
2019-03-25T00:07:36.471Z,17.07
2019-03-25T00:10:06.031Z,10.43
2019-03-25T00:12:34.468Z,10.13
2019-03-25T00:15:04.034Z,14.90
2019-03-25T00:17:32.434Z,15.28
2019-03-25T00:20:01.655Z,11.22
2019-03-25T00:22:30.072Z,10.72
2019-03-25T00:24:58.470Z,10.85
2019-03-25T00:27:26.900Z,12.93
2019-03-25T00:29:55.402Z,10.23
2019-03-25T00:32:23.792Z,10.48
2019-03-25T00:34:52.195Z,15.85
2019-03-25T00:37:20.620Z,10.65
2019-03-25T00:39:49.037Z,11.60
2019-03-25T00:42:17.510Z,11.82
2019-03-25T00:44:45.920Z,13.90
2019-03-25T00:47:14.324Z,14.78
2019-03-25T00:49:42.732Z,13.60
2019-03-25T00:52:11.174Z,14.47
2019-03-25T00:54:49.546Z,11.73
2019-03-25T00:57:10.623Z,15.63
2019-03-25T00:59:39.038Z,12.68
2019-03-25T01:02:07.453Z,21.00
2019-03-25T01:04:35.848Z,11.90
2019-03-25T01:07:04.364Z,11.63
2019-03-25T01:09:32.809Z,14.58
2019-03-25T01:12:01.224Z,17.50
2019-03-25T01:14:29.619Z,15.27
2019-03-25T01:16:58.095Z,15.43
2019-03-25T01:19:26.558Z,12.13
2019-03-25T01:21:54.974Z,13.60
2019-03-25T01:24:23.365Z,13.05
2019-03-25T01:26:51.789Z,14.60
2019-03-25T01:29:20.448Z,17.17
2019-03-25T01:31:48.862Z,10.65
2019-03-25T01:34:17.276Z,14.60
2019-03-25T01:36:45.668Z,14.58
2019-03-25T01:39:14.447Z,16.25
2019-03-25T01:41:43.010Z,16.03
2019-03-25T01:44:11.408Z,13.54
2019-03-25T01:46:39.828Z,11.55
2019-03-25T01:49:08.240Z,13.70
2019-03-25T01:51:36.649Z,16.73
2019-03-25T01:54:05.039Z,15.00
2019-03-25T01:56:33.478Z,14.38
2019-03-25T01:59:01.946Z,16.52
2019-03-25T02:01:30.346Z,15.30
2019-03-25T02:03:58.854Z,14.07
2019-03-25T02:06:27.250Z,15.03
2019-03-25T02:08:55.973Z,13.18
2019-03-25T02:11:24.380Z,15.68
2019-03-25T02:13:52.797Z,13.58
2019-03-25T02:16:21.197Z,14.70
2019-03-25T02:18:49.604Z,16.77
2019-03-25T02:21:18.017Z,14.15
2019-03-25T02:23:46.433Z,14.40
2019-03-25T02:26:15.163Z,18.03
2019-03-25T02:28:43.633Z,13.83
2019-03-25T02:31:12.044Z,10.97
2019-03-25T02:33:40.647Z,15.38
2019-03-25T02:36:09.078Z,14.85
2019-03-25T02:38:37.486Z,16.07
2019-03-25T02:41:05.887Z,15.17
2019-03-25T02:43:34.641Z,15.30
2019-03-25T02:46:08.809Z,16.23
2019-03-25T02:48:37.279Z,11.68
2019-03-25T02:51:05.681Z,12.68
2019-03-25T02:53:34.109Z,13.80
2019-03-25T02:56:02.818Z,14.90
2019-03-25T02:58:31.262Z,12.70
2019-03-25T03:00:59.720Z,12.85
2019-03-25T03:03:28.214Z,16.57
2019-03-25T03:05:56.699Z,13.10
2019-03-25T03:08:25.117Z,14.35
2019-03-25T03:10:53.855Z,13.75
2019-03-25T03:13:22.263Z,15.95
2019-03-25T03:15:50.717Z,13.80
2019-03-25T03:18:19.207Z,9.53
2019-03-25T03:20:47.596Z,15.45
2019-03-25T03:23:16.024Z,13.83
2019-03-25T03:25:56.276Z,14.68
2019-03-25T03:28:14.871Z,12.00
2019-03-25T03:30:43.276Z,13.48
2019-03-25T03:33:11.676Z,11.68
2019-03-25T03:35:40.082Z,18.15
2019-03-25T03:38:08.484Z,16.82
2019-03-25T03:40:37.534Z,11.20
2019-03-25T03:43:06.068Z,14.65
2019-03-25T03:45:34.473Z,12.90
2019-03-25T03:48:02.881Z,14.87
2019-03-25T03:50:31.358Z,11.80
2019-03-25T03:52:59.762Z,15.25
2019-03-25T03:55:29.524Z,11.17
2019-03-25T03:57:58.001Z,15.80
2019-03-25T04:00:31.381Z,16.93
2019-03-25T04:03:01.265Z,12.20
2019-03-25T04:05:29.776Z,16.85
2019-03-25T04:07:58.181Z,15.57
2019-03-25T04:10:26.658Z,13.45
2019-03-25T04:12:55.070Z,13.60
2019-03-25T04:15:28.394Z,16.73
2019-03-25T04:17:57.551Z,14.83
2019-03-25T04:20:25.980Z,14.90
2019-03-25T04:22:55.669Z,13.57
2019-03-25T04:25:24.092Z,10.03
2019-03-25T04:27:52.514Z,12.93
2019-03-25T04:30:20.966Z,15.95
2019-03-25T04:32:49.394Z,17.73
2019-03-25T04:35:17.809Z,15.30
2019-03-25T04:38:05.549Z,15.83
2019-03-25T04:40:33.990Z,16.80
2019-03-25T04:43:02.492Z,15.55
2019-03-25T04:45:31.383Z,17.67
2019-03-25T04:47:59.844Z,13.48
2019-03-25T04:50:28.297Z,11.80
2019-03-25T04:52:56.787Z,19.77
2019-03-25T04:55:25.210Z,12.78
2019-03-25T04:57:53.609Z,16.57
2019-03-25T05:00:33.322Z,13.70
2019-03-25T05:03:01.733Z,16.75
2019-03-25T05:05:30.182Z,18.55
2019-03-25T05:07:58.605Z,17.23
2019-03-25T05:10:27.129Z,15.55
2019-03-25T05:12:55.812Z,18.10
2019-03-25T05:15:24.270Z,18.10
2019-03-25T05:17:52.694Z,14.40
2019-03-25T05:20:21.103Z,16.52
2019-03-25T05:22:50.016Z,14.68
2019-03-25T05:25:18.444Z,14.38
2019-03-25T05:27:46.852Z,21.25
2019-03-25T05:30:15.359Z,15.15
2019-03-25T05:32:43.776Z,13.95
2019-03-25T05:35:12.200Z,9.68
2019-03-25T05:37:40.658Z,11.17
2019-03-25T05:40:10.047Z,10.88
2019-03-25T05:42:38.602Z,10.08
2019-03-25T05:45:27.893Z,11.18
2019-03-25T05:47:56.314Z,15.90
2019-03-25T05:50:25.068Z,10.13
2019-03-25T05:52:53.727Z,12.43
2019-03-25T05:55:22.136Z,11.73
2019-03-25T05:57:50.538Z,10.55
2019-03-25T06:00:20.621Z,10.60
2019-03-25T06:02:49.091Z,10.65
2019-03-25T06:05:17.782Z,16.70
2019-03-25T06:07:46.231Z,13.32
2019-03-25T06:10:16.276Z,11.50
2019-03-25T06:12:44.751Z,10.32
2019-03-25T06:15:14.029Z,10.13
2019-03-25T06:17:42.433Z,18.50
2019-03-25T06:20:12.069Z,13.72
2019-03-25T06:22:40.509Z,15.55
2019-03-25T06:25:09.549Z,9.43
2019-03-25T06:27:37.956Z,12.78
2019-03-25T06:30:08.972Z,13.98
2019-03-25T06:32:37.449Z,9.68
2019-03-25T06:35:08.962Z,16.70
2019-03-25T06:37:37.273Z,16.40
2019-03-25T06:40:07.936Z,11.83
2019-03-25T06:42:36.353Z,18.60
2019-03-25T06:45:07.704Z,9.70
2019-03-25T06:47:36.116Z,10.35
2019-03-25T06:50:08.997Z,11.15
2019-03-25T06:52:37.729Z,13.20
2019-03-25T06:55:07.587Z,11.10
2019-03-25T06:57:38.450Z,9.50
2019-03-25T07:00:10.275Z,11.70
2019-03-25T07:02:38.746Z,8.38
2019-03-25T07:05:07.635Z,9.10
2019-03-25T07:07:36.046Z,12.82
2019-03-25T07:10:06.000Z,15.25
2019-03-25T07:12:34.485Z,18.20
2019-03-25T07:15:02.974Z,12.43
2019-03-25T07:17:31.411Z,14.65
2019-03-25T07:19:59.820Z,14.43
2019-03-25T07:22:28.280Z,14.05
2019-03-25T07:24:56.678Z,13.62
2019-03-25T07:27:36.116Z,14.45
2019-03-25T07:29:55.894Z,17.02
2019-03-25T07:32:24.349Z,14.47
2019-03-25T07:34:52.771Z,16.40
2019-03-25T07:37:23.525Z,12.73
2019-03-25T07:39:51.325Z,15.13
2019-03-25T07:42:19.829Z,18.87
2019-03-25T07:44:48.230Z,18.17
2019-03-25T07:47:16.658Z,15.72
2019-03-25T07:49:45.070Z,24.32
2019-03-25T07:52:13.485Z,12.93
2019-03-25T07:54:42.162Z,18.15
2019-03-25T07:57:11.855Z,16.50
2019-03-25T07:59:40.425Z,15.97
2019-03-25T08:02:08.905Z,14.75
2019-03-25T08:04:38.725Z,20.12
2019-03-25T08:07:07.386Z,15.58
2019-03-25T08:09:35.852Z,16.87
2019-03-25T08:12:04.335Z,15.18
2019-03-25T08:14:32.752Z,12.40
2019-03-25T08:17:01.146Z,15.05
2019-03-25T08:19:29.557Z,14.28
2019-03-25T08:21:58.050Z,16.27
2019-03-25T08:24:26.481Z,20.30
2019-03-25T08:26:54.910Z,10.75
2019-03-25T08:29:23.309Z,13.88
2019-03-25T08:31:51.739Z,13.40
2019-03-25T08:34:20.137Z,11.33
2019-03-25T08:36:48.665Z,14.63
2019-03-25T08:39:17.093Z,17.20
2019-03-25T08:41:45.832Z,15.68
2019-03-25T08:44:14.260Z,16.40
2019-03-25T08:46:42.661Z,10.80
2019-03-25T08:49:12.132Z,13.90
2019-03-25T08:51:40.785Z,12.20
2019-03-25T08:54:09.981Z,15.98
2019-03-25T08:56:38.376Z,11.05
2019-03-25T08:59:06.799Z,15.43
2019-03-25T09:01:35.203Z,12.88
2019-03-25T09:04:03.621Z,13.45
2019-03-25T09:06:32.031Z,15.83
2019-03-25T09:09:00.600Z,14.10
2019-03-25T09:11:29.081Z,12.35
2019-03-25T09:13:57.749Z,15.13
2019-03-25T09:16:26.253Z,14.23
2019-03-25T09:18:54.666Z,21.75
2019-03-25T09:21:23.082Z,17.70
2019-03-25T09:23:51.531Z,13.13
2019-03-25T09:26:20.045Z,12.65
2019-03-25T09:28:48.453Z,8.55
2019-03-25T09:31:18.608Z,11.28
2019-03-25T09:33:48.088Z,11.40
2019-03-25T09:36:18.401Z,9.78
2019-03-25T09:38:46.880Z,10.82
2019-03-25T09:41:15.369Z,6.30
2019-03-25T09:43:44.319Z,5.85
2019-03-25T09:46:12.738Z,7.33
2019-03-25T09:48:41.613Z,8.98
2019-03-25T09:51:10.080Z,7.12
2019-03-25T09:53:38.752Z,7.67
2019-03-25T09:56:07.281Z,7.35
2019-03-25T09:58:36.760Z,8.55
2019-03-25T10:01:05.605Z,9.98
2019-03-25T10:03:34.041Z,8.53
2019-03-25T10:06:02.519Z,7.50
2019-03-25T10:08:31.019Z,5.05
2019-03-25T10:10:59.859Z,7.42
2019-03-25T10:13:28.278Z,7.53
2019-03-25T10:15:56.685Z,6.83
2019-03-25T10:18:25.176Z,8.75
2019-03-25T10:20:53.583Z,8.73
2019-03-25T10:23:22.014Z,10.10
2019-03-25T10:25:50.435Z,9.45
2019-03-25T10:28:18.816Z,7.92
2019-03-25T10:30:47.225Z,8.78
2019-03-25T10:33:15.638Z,9.78
2019-03-25T10:35:44.052Z,7.45
2019-03-25T10:38:19.490Z,6.75
2019-03-25T10:40:42.878Z,10.67
2019-03-25T10:43:11.273Z,6.15
2019-03-25T10:45:39.688Z,4.45
2019-03-25T10:48:10.998Z,4.90
2019-03-25T10:50:39.437Z,6.47
2019-03-25T10:53:07.947Z,7.20
2019-03-25T10:55:36.683Z,6.33
2019-03-25T10:58:05.150Z,6.97
2019-03-25T11:00:33.768Z,5.45
2019-03-25T11:03:02.467Z,5.00
2019-03-25T11:05:30.894Z,2.90
2019-03-25T11:07:59.332Z,4.07
2019-03-25T11:10:28.034Z,4.20
2019-03-25T11:12:56.409Z,4.35
2019-03-25T11:15:24.826Z,5.33
2019-03-25T11:17:53.242Z,5.72
2019-03-25T11:20:22.137Z,11.43
2019-03-25T11:22:50.632Z,6.42
2019-03-25T11:25:19.188Z,4.78
2019-03-25T11:27:54.315Z,5.40
2019-03-25T11:30:20.950Z,6.47
2019-03-25T11:32:49.366Z,5.60
2019-03-25T11:35:17.895Z,3.85
2019-03-25T11:37:46.310Z,5.40
2019-03-25T11:40:15.364Z,3.75
2019-03-25T11:42:43.809Z,5.83
2019-03-25T11:45:12.895Z,5.70
2019-03-25T11:47:41.463Z,3.47
2019-03-25T11:50:10.198Z,5.12
2019-03-25T11:52:38.688Z,7.50
2019-03-25T11:55:07.529Z,5.62
2019-03-25T11:57:35.997Z,8.25
2019-03-25T12:00:08.874Z,8.23
2019-03-25T12:02:37.381Z,8.18
2019-03-25T12:05:07.048Z,7.97
2019-03-25T12:07:35.440Z,7.15
2019-03-25T12:10:07.558Z,5.92
2019-03-25T12:12:36.221Z,8.30
2019-03-25T12:15:06.594Z,5.47
2019-03-25T12:17:35.305Z,3.80
2019-03-25T12:20:05.543Z,6.93
2019-03-25T12:22:34.020Z,7.83
2019-03-25T12:25:02.418Z,3.50
2019-03-25T12:27:30.896Z,6.57
2019-03-25T12:29:59.485Z,3.62
2019-03-25T12:32:27.925Z,7.47
2019-03-25T12:34:56.328Z,8.23
2019-03-25T12:37:24.770Z,5.65
2019-03-25T12:39:53.231Z,5.83
2019-03-25T12:42:21.707Z,5.83
2019-03-25T12:44:50.218Z,6.20
2019-03-25T12:47:18.705Z,4.08
2019-03-25T12:49:47.548Z,2.83
2019-03-25T12:52:15.985Z,5.70
2019-03-25T12:54:44.454Z,5.57
2019-03-25T12:57:12.877Z,7.67
2019-03-25T12:59:41.794Z,5.10
2019-03-25T13:02:10.297Z,4.33
2019-03-25T13:04:38.747Z,4.10
2019-03-25T13:07:07.967Z,2.33
2019-03-25T13:09:36.952Z,2.00
2019-03-25T13:12:05.340Z,3.72
2019-03-25T13:14:35.192Z,3.02
2019-03-25T13:17:03.785Z,3.02
2019-03-25T13:19:32.215Z,4.73
2019-03-25T13:22:00.715Z,2.52
2019-03-25T13:24:29.133Z,1.90
2019-03-25T13:26:57.550Z,2.87
2019-03-25T13:29:26.064Z,4.23
2019-03-25T13:31:54.511Z,2.08
2019-03-25T13:34:22.942Z,4.00
2019-03-25T13:36:51.360Z,4.05
2019-03-25T13:39:19.781Z,1.80
2019-03-25T13:41:48.219Z,2.20
2019-03-25T13:44:16.620Z,5.90
2019-03-25T13:46:45.039Z,4.03
2019-03-25T13:49:13.477Z,6.85
2019-03-25T13:51:41.972Z,5.45
2019-03-25T13:54:10.790Z,5.22
2019-03-25T13:56:39.269Z,6.30
2019-03-25T13:59:07.699Z,3.92
2019-03-25T14:01:36.119Z,3.60
2019-03-25T14:04:04.534Z,6.05
2019-03-25T14:06:32.929Z,5.60
2019-03-25T14:09:01.340Z,4.97
2019-03-25T14:11:29.773Z,4.90
2019-03-25T14:14:00.179Z,8.45
2019-03-25T14:16:28.436Z,8.60
2019-03-25T14:18:56.846Z,8.30
2019-03-25T14:21:25.346Z,6.63
2019-03-25T14:23:53.761Z,5.22
2019-03-25T14:26:22.179Z,8.30
2019-03-25T14:28:50.581Z,6.97
2019-03-25T14:31:19.007Z,7.92
2019-03-25T14:33:47.399Z,14.27
2019-03-25T14:36:15.815Z,10.32
2019-03-25T14:38:44.235Z,8.83
2019-03-25T14:41:12.728Z,8.45
2019-03-25T14:43:41.331Z,9.15
2019-03-25T14:46:11.293Z,14.23
2019-03-25T14:48:41.333Z,6.83
2019-03-25T14:51:10.072Z,9.40
2019-03-25T14:53:45.247Z,8.90
2019-03-25T14:56:08.794Z,8.05
2019-03-25T14:58:37.213Z,8.60
2019-03-25T15:01:10.456Z,10.50
2019-03-25T15:03:38.989Z,12.73
2019-03-25T15:06:08.392Z,7.97
2019-03-25T15:08:36.817Z,7.83
2019-03-25T15:11:05.357Z,9.18
2019-03-25T15:13:34.158Z,5.60
2019-03-25T15:16:02.586Z,5.93
2019-03-25T15:18:30.989Z,8.10
2019-03-25T15:20:59.435Z,6.60
2019-03-25T15:23:27.888Z,5.95
2019-03-25T15:25:56.541Z,6.83
2019-03-25T15:28:25.045Z,4.08
2019-03-25T15:30:53.465Z,4.90
2019-03-25T15:33:21.898Z,8.30
2019-03-25T15:35:50.329Z,5.53
2019-03-25T15:38:18.844Z,8.18
2019-03-25T15:40:47.241Z,7.97
2019-03-25T15:43:15.696Z,5.83
2019-03-25T15:45:44.179Z,9.68
2019-03-25T15:48:12.970Z,8.60
2019-03-25T15:50:41.371Z,8.97
2019-03-25T15:53:09.853Z,10.63
2019-03-25T15:55:38.723Z,8.50
2019-03-25T15:58:07.172Z,6.17
2019-03-25T16:00:46.621Z,8.30
2019-03-25T16:03:06.041Z,4.42
2019-03-25T16:09:02.902Z,8.08
2019-03-25T16:11:31.399Z,6.08
2019-03-25T16:14:00.088Z,9.48
2019-03-25T16:16:28.520Z,6.72
2019-03-25T16:18:56.971Z,8.48
2019-03-25T16:21:25.394Z,6.50
2019-03-25T16:23:53.880Z,8.95
2019-03-25T16:26:22.314Z,10.17
2019-03-25T16:28:50.828Z,7.65
2019-03-25T16:31:19.251Z,8.58
2019-03-25T16:33:47.690Z,7.05
2019-03-25T16:36:16.173Z,8.10
2019-03-25T16:38:44.609Z,7.72
2019-03-25T16:41:13.142Z,7.30
2019-03-25T16:43:41.798Z,7.25
2019-03-25T16:46:10.296Z,8.43
2019-03-25T16:48:38.737Z,6.57
2019-03-25T16:51:07.157Z,6.92
2019-03-25T16:53:35.678Z,7.40
2019-03-25T16:56:04.190Z,8.18
2019-03-25T16:58:32.652Z,9.25
2019-03-25T17:01:09.485Z,6.80
2019-03-25T17:03:31.436Z,11.57
2019-03-25T17:06:02.798Z,11.90
2019-03-25T17:08:31.235Z,11.33
2019-03-25T17:10:59.808Z,8.70
2019-03-25T17:13:28.258Z,8.35
2019-03-25T17:15:56.691Z,9.23
2019-03-25T17:18:25.166Z,10.95
2019-03-25T17:20:53.759Z,7.08
2019-03-25T17:23:22.665Z,14.98
2019-03-25T17:25:53.181Z,9.17
2019-03-25T17:28:31.521Z,6.50
2019-03-25T17:31:02.982Z,11.03
2019-03-25T17:33:30.738Z,11.10
2019-03-25T17:36:00.621Z,16.15
2019-03-25T17:38:29.174Z,9.08
2019-03-25T17:40:59.856Z,9.55
2019-03-25T17:43:28.366Z,11.40
2019-03-25T17:45:56.809Z,6.90
2019-03-25T17:48:25.240Z,8.00
2019-03-25T17:50:55.214Z,10.35
2019-03-25T17:53:23.682Z,7.20
2019-03-25T17:55:55.023Z,5.92
2019-03-25T17:58:23.430Z,10.78
2019-03-25T18:00:54.939Z,10.85
2019-03-25T18:03:23.424Z,7.58
2019-03-25T18:05:51.896Z,7.40
2019-03-25T18:08:20.649Z,5.03
2019-03-25T18:10:49.093Z,8.98
2019-03-25T18:13:22.377Z,11.18
2019-03-25T18:15:47.986Z,7.28
2019-03-25T18:18:16.985Z,7.20
2019-03-25T18:20:45.817Z,7.15
2019-03-25T18:23:14.262Z,6.97
2019-03-25T18:25:42.700Z,8.35
2019-03-25T18:28:11.173Z,7.40
2019-03-25T18:30:39.583Z,4.97
2019-03-25T18:33:08.023Z,5.30
2019-03-25T18:35:37.273Z,8.23
2019-03-25T18:38:05.713Z,9.85
2019-03-25T18:40:34.125Z,4.62
2019-03-25T18:43:02.549Z,6.85
2019-03-25T18:45:31.086Z,7.50
2019-03-25T18:47:59.501Z,9.03
2019-03-25T18:50:28.044Z,6.30
2019-03-25T18:52:57.014Z,10.60
2019-03-25T18:55:25.712Z,6.28
2019-03-25T18:57:54.149Z,8.15
2019-03-25T19:00:33.313Z,9.75
2019-03-25T19:03:02.107Z,5.53
2019-03-25T19:05:31.121Z,8.40
2019-03-25T19:08:01.538Z,7.70
2019-03-25T19:10:31.046Z,11.08
2019-03-25T19:13:00.715Z,4.53
2019-03-25T19:15:29.309Z,3.35
2019-03-25T19:17:57.743Z,7.97
2019-03-25T19:20:26.476Z,8.18
2019-03-25T19:22:54.935Z,8.80
2019-03-25T19:25:24.442Z,7.22
2019-03-25T19:27:52.870Z,6.85
2019-03-25T19:30:21.338Z,8.65
2019-03-25T19:32:49.817Z,8.60
2019-03-25T19:35:18.477Z,4.45
2019-03-25T19:37:46.959Z,7.78
2019-03-25T19:40:15.449Z,9.15
2019-03-25T19:42:43.926Z,8.18
2019-03-25T19:45:14.672Z,6.95
2019-03-25T19:47:43.186Z,11.20
2019-03-25T19:50:12.286Z,11.18
2019-03-25T19:52:40.710Z,6.03
2019-03-25T19:55:09.389Z,6.50
2019-03-25T19:57:37.912Z,8.15
2019-03-25T20:00:09.375Z,5.75
2019-03-25T20:02:38.205Z,6.37
2019-03-25T20:05:07.785Z,11.08
2019-03-25T20:07:36.238Z,6.65
2019-03-25T20:10:06.604Z,9.23
2019-03-25T20:12:35.229Z,6.13
2019-03-25T20:15:05.526Z,9.55
2019-03-25T20:17:33.940Z,8.30
2019-03-25T20:20:02.429Z,7.42
2019-03-25T20:22:30.851Z,8.28
2019-03-25T20:24:59.463Z,9.60
2019-03-25T20:27:27.903Z,11.28
2019-03-25T20:29:56.326Z,8.33
2019-03-25T20:32:31.681Z,7.80
2019-03-25T20:34:54.928Z,7.65
2019-03-25T20:37:23.362Z,6.67
2019-03-25T20:39:51.845Z,8.45
2019-03-25T20:42:20.389Z,12.43
2019-03-25T20:44:48.816Z,7.92
2019-03-25T20:47:17.295Z,10.38
2019-03-25T20:49:45.803Z,7.25
2019-03-25T20:52:14.257Z,7.50
2019-03-25T20:54:42.785Z,12.10
2019-03-25T20:57:11.195Z,9.68
2019-03-25T20:59:39.618Z,7.83
2019-03-25T21:02:08.089Z,8.53
2019-03-25T21:04:36.549Z,15.53
2019-03-25T21:07:05.028Z,7.42
2019-03-25T21:09:33.473Z,15.80
2019-03-25T21:12:02.168Z,8.70
2019-03-25T21:14:30.589Z,8.83
2019-03-25T21:16:59.167Z,13.80
2019-03-25T21:19:30.939Z,10.45
2019-03-25T21:21:59.543Z,14.33
2019-03-25T21:24:28.141Z,12.90
2019-03-25T21:26:56.787Z,7.35
2019-03-25T21:29:25.203Z,6.45
2019-03-25T21:31:54.068Z,5.53
2019-03-25T21:34:22.544Z,11.43
2019-03-25T21:36:51.018Z,13.08
2019-03-25T21:39:19.444Z,10.13
2019-03-25T21:41:47.960Z,13.40
2019-03-25T21:44:16.431Z,12.25
2019-03-25T21:46:44.913Z,10.90
2019-03-25T21:49:13.386Z,9.70
2019-03-25T21:51:42.064Z,10.50
2019-03-25T21:54:10.556Z,12.88
2019-03-25T21:56:39.029Z,11.20
2019-03-25T21:59:07.523Z,9.93
2019-03-25T22:01:35.984Z,12.40
2019-03-25T22:04:04.408Z,9.33
2019-03-25T22:06:33.627Z,7.12
2019-03-25T22:09:02.121Z,8.45
2019-03-25T22:11:30.590Z,12.73
2019-03-25T22:13:59.052Z,9.57
2019-03-25T22:16:27.466Z,10.93
2019-03-25T22:18:56.785Z,15.88
2019-03-25T22:21:25.362Z,9.00
2019-03-25T22:23:54.081Z,11.23
2019-03-25T22:26:22.642Z,11.60
2019-03-25T22:28:51.086Z,11.10
2019-03-25T22:31:19.970Z,9.60
2019-03-25T22:33:48.442Z,11.73
2019-03-25T22:36:16.846Z,11.50
2019-03-25T22:38:45.290Z,12.98
2019-03-25T22:41:13.793Z,7.53
2019-03-25T22:43:42.786Z,8.73
2019-03-25T22:46:11.273Z,16.82
2019-03-25T22:48:39.786Z,10.97
2019-03-25T22:51:08.333Z,7.27
2019-03-25T22:53:36.756Z,6.45
2019-03-25T22:56:05.194Z,9.30
2019-03-25T22:58:33.650Z,12.45
2019-03-25T23:01:02.658Z,9.30
2019-03-25T23:03:39.201Z,13.90
2019-03-25T23:06:01.314Z,8.25
2019-03-25T23:08:30.847Z,10.25
2019-03-25T23:10:59.246Z,14.18
2019-03-25T23:13:27.696Z,13.62
2019-03-25T23:15:56.146Z,14.68
2019-03-25T23:18:24.597Z,10.30
2019-03-25T23:20:53.002Z,11.48
2019-03-25T23:23:21.456Z,13.32
2019-03-25T23:25:49.874Z,13.22
2019-03-25T23:28:18.290Z,16.30
2019-03-25T23:30:46.703Z,9.13
2019-03-25T23:33:17.228Z,13.34
2019-03-25T23:35:45.710Z,16.17
2019-03-25T23:38:14.127Z,13.15
2019-03-25T23:40:42.638Z,13.15
2019-03-25T23:43:11.188Z,10.53
2019-03-25T23:45:39.708Z,10.20
2019-03-25T23:48:08.117Z,12.28
2019-03-25T23:50:36.566Z,9.90
2019-03-25T23:53:05.061Z,10.48
2019-03-25T23:55:33.510Z,10.65
2019-03-25T23:58:01.921Z,11.45
